ADDS METAR Data INFO
IDs: Format: Raw Decoded Include TAF

Data at: 2008 UTC 19 Oct 2017

KDEQ 191953Z AUTO 08003KT 10SM CLR 26/13 A3012 RMK AO2 SLP197 T02610133
KDEQ 191853Z AUTO 00000KT 10SM CLR 26/14 A3015 RMK AO2 SLP205 T02560139
KDEQ 191753Z AUTO VRB03KT 10SM CLR 26/14 A3018 RMK AO2 SLP215 T02560139 10256 20067 58011
KDEQ 191653Z AUTO VRB03KT 10SM CLR 23/14 A3020 RMK AO2 SLP223 T02330144
KDEQ 191553Z AUTO 06003KT 10SM CLR 19/14 A3021 RMK AO2 SLP228 T01940144
KDEQ 191453Z AUTO 00000KT 10SM CLR 17/14 A3021 RMK AO2 SLP227 T01720144 53009
KDEQ 191353Z AUTO 00000KT 5SM BR CLR 12/12 A3020 RMK AO2 SLP222 T01170117
KDEQ 191348Z AUTO 00000KT 5SM BR CLR 11/11 A3019 RMK AO2
KDEQ 191339Z AUTO 00000KT 2SM BR SCT002 11/11 A3019 RMK AO2 T01060106
KDEQ 191335Z AUTO 00000KT 1SM BR VV002 10/10 A3019 RMK AO2 T01000100
KDEQ 191253Z AUTO 00000KT M1/4SM FG VV002 07/07 A3018 RMK AO2 SLP218 T00720072
KDEQ 191244Z AUTO 00000KT 1/4SM FG VV002 08/08 A3018 RMK AO2 T00780078
KDEQ 191241Z AUTO 00000KT 1SM BR VV002 08/08 A3018 RMK AO2 T00780078
KDEQ 191210Z AUTO 00000KT 1/4SM FG VV002 07/07 A3018 RMK AO2 T00720072
KDEQ 191203Z AUTO 00000KT 1/4SM FG CLR 07/07 A3018 RMK AO2 T00720072
KDEQ 191158Z AUTO 00000KT 1/2SM FG VV002 07/07 A3018 RMK AO2 T00720072
KDEQ 191153Z AUTO 00000KT 1SM BR CLR 08/08 A3018 RMK AO2 VIS 1/2V3 SLP216 T00780078 10100 20067 53005
KDEQ 191147Z AUTO 11003KT 1SM BR CLR 09/09 A3018 RMK AO2
KDEQ 191110Z AUTO 00000KT 1/2SM FG VV001 07/07 A3018 RMK AO2 T00720072
KDEQ 191053Z AUTO 00000KT 1/4SM FG VV001 07/07 A3017 RMK AO2 SLP214 T00720072
KDEQ 190953Z AUTO 00000KT 1/4SM FG VV001 07/07 A3016 RMK AO2 SLP210 T00720072
KDEQ 190950Z AUTO 00000KT 1/4SM FG VV001 07/07 A3016 RMK AO2
KDEQ 190934Z AUTO 00000KT 3/4SM BR VV001 07/07 A3015 RMK AO2 VIS 1/4V1 3/4 T00720072
KDEQ 190911Z AUTO 00000KT 1/4SM FG VV001 07/07 A3015 RMK AO2 T00720072
KDEQ 190901Z AUTO 00000KT 1SM BR VV001 08/08 A3015 RMK AO2 T00830083
KDEQ 190853Z AUTO 00000KT 1/4SM FG VV001 08/08 A3015 RMK AO2 SLP205 T00780078 50002
KDEQ 190820Z AUTO 00000KT 1/4SM FG VV002 08/08 A3015 RMK AO2 T00780078
KDEQ 190813Z AUTO 00000KT 1/2SM FG VV002 08/08 A3014 RMK AO2 T00780078
KDEQ 190805Z AUTO 00000KT 1SM BR VV002 08/08 A3015 RMK AO2 T00830083
KDEQ 190757Z AUTO 00000KT 2 1/2SM BR FEW002 09/09 A3015 RMK AO2 T00890089
KDEQ 190753Z AUTO 00000KT 1/2SM FG VV002 09/09 A3015 RMK AO2 SLP205 T00890089
KDEQ 190746Z AUTO 00000KT 1/4SM FG VV002 09/09 A3015 RMK AO2 T00890089
KDEQ 190739Z AUTO 00000KT 3/4SM BR CLR 09/09 A3015 RMK AO2 T00890089
KDEQ 190728Z AUTO 00000KT 5SM BR CLR 08/08 A3014 RMK AO2 T00830083
KDEQ 190716Z AUTO 00000KT 1SM BR CLR 09/09 A3014 RMK AO2 T00940094
KDEQ 190653Z AUTO 00000KT 1/2SM FG CLR 08/08 A3014 RMK AO2 SLP203 T00830083
KDEQ 190643Z AUTO 00000KT 1 1/2SM BR CLR 08/08 A3014 RMK AO2 T00830083
KDEQ 190553Z AUTO 00000KT 6SM BR CLR 09/09 A3013 RMK AO2 SLP201 T00940094 10183 20089 402670033 58001
KDEQ 190453Z AUTO 00000KT 6SM BR CLR 11/11 A3014 RMK AO2 SLP201 T01060106
KDEQ 190448Z AUTO 00000KT 2SM BR CLR 09/09 A3014 RMK AO2
KDEQ 190353Z AUTO 00000KT 10SM CLR 11/11 A3014 RMK AO2 SLP203 T01060106
KDEQ 190253Z AUTO 07003KT 10SM CLR 11/11 A3013 RMK AO2 SLP199 T01060106 51007
KDEQ 190153Z AUTO 00000KT 10SM CLR 13/11 A3012 RMK AO2 SLP199 T01280111
KDEQ 190053Z AUTO 00000KT 10SM CLR 14/11 A3012 RMK AO2 SLP197 T01440111
KDEQ 182353Z AUTO 00000KT 10SM CLR 18/11 A3011 RMK AO2 SLP193 T01830111 10267 20178 53002
KDEQ 182253Z AUTO 17003KT 10SM CLR 25/09 A3010 RMK AO2 SLP189 T02500089
KDEQ 182153Z AUTO 19006KT 10SM CLR 26/08 A3009 RMK AO2 SLP188 T02610083
KDEQ 182053Z AUTO VRB05KT 10SM CLR 26/08 A3010 RMK AO2 SLP189 T02610083 56023
KDEQ 181953Z AUTO 18005KT 10SM CLR 25/09 A3011 RMK AO2 SLP192 T02500089
KDEQ 181853Z AUTO 17006KT 10SM CLR 24/10 A3014 RMK AO2 SLP202 T02390100
KDEQ 181753Z AUTO 21007KT 10SM CLR 23/09 A3017 RMK AO2 SLP213 T02330089 10233 20033 58014
KDEQ 181653Z AUTO VRB06KT 10SM CLR 22/10 A3020 RMK AO2 SLP223 T02170100
KDEQ 181553Z AUTO 15004KT 10SM CLR 18/10 A3021 RMK AO2 SLP226 T01830100
KDEQ 181453Z AUTO 09003KT 10SM CLR 15/11 A3021 RMK AO2 SLP229 T01500106 53006
KDEQ 181353Z AUTO 00000KT 10SM CLR 09/09 A3020 RMK AO2 SLP226 T00940089
KDEQ 181302Z AUTO 00000KT 3SM BR CLR 04/04 A3019 RMK AO2 T00440044
KDEQ 181300Z AUTO 00000KT 1 3/4SM BR CLR 04/04 A3019 RMK AO2 T00440044
KDEQ 181253Z AUTO 00000KT 3/4SM BR CLR 04/04 A3019 RMK AO2 SLP223 T00390039
KDEQ 181239Z AUTO 00000KT 1/4SM FG CLR 04/04 A3019 RMK AO2 T00390039
KDEQ 181153Z AUTO 00000KT 1SM BR CLR 04/04 A3018 RMK AO2 SLP219 T00390039 10067 20033 53002
KDEQ 181128Z AUTO 00000KT 1/2SM FG CLR 04/04 A3019 RMK AO2 T00390039
KDEQ 181119Z AUTO 00000KT 1 1/2SM BR CLR 03/03 A3018 RMK AO2 T00330033
KDEQ 181059Z AUTO 00000KT 3SM BR CLR 04/04 A3018 RMK AO2 T00390039
KDEQ 181053Z AUTO 08003KT 1 1/2SM BR CLR 04/04 A3018 RMK AO2 SLP217 T00390039
KDEQ 181049Z AUTO 00000KT 1 3/4SM BR CLR 04/04 A3018 RMK AO2
KDEQ 181035Z AUTO 00000KT 3SM BR CLR 04/04 A3018 RMK AO2 T00440044
KDEQ 181006Z AUTO 00000KT 1SM BR CLR 04/04 A3018 RMK AO2 T00440044
KDEQ 180953Z AUTO 00000KT 2 1/2SM BR CLR 04/04 A3017 RMK AO2 SLP215 T00390039
KDEQ 180932Z AUTO 00000KT 3SM BR CLR 04/04 A3017 RMK AO2 T00440044
KDEQ 180925Z AUTO 00000KT 1 1/4SM BR CLR 04/04 A3017 RMK AO2 VIS 3/4V2 1/2 T00390039
KDEQ 180918Z AUTO 07003KT 3/4SM BR CLR 04/04 A3017 RMK AO2 T00390039
KDEQ 180906Z AUTO 05003KT 1 3/4SM BR CLR 04/04 A3017 RMK AO2 T00440044
KDEQ 180900Z AUTO 00000KT 3SM BR CLR 05/05 A3017 RMK AO2 T00500050
KDEQ 180853Z AUTO 00000KT 1 1/2SM BR CLR 04/04 A3018 RMK AO2 SLP216 T00440044 58004
KDEQ 180844Z AUTO 00000KT 1/2SM FG CLR 04/04 A3018 RMK AO2 T00390039